sensor_id;sensor_type;location;lat;lon;timestamp;pressure;altitude;pressure_sealevel;temperature;humidity
58991;BME280;44781;53.444;14.476;2022-12-07T00:01:26;101090.34;;;3.69;84.04
58991;BME280;44781;53.444;14.476;2022-12-07T00:03:55;101096.39;;;3.71;84.03
58991;BME280;44781;53.444;14.476;2022-12-07T00:06:41;101097.73;;;3.69;83.92
58991;BME280;44781;53.444;14.476;2022-12-07T00:09:16;101097.28;;;3.66;83.85
58991;BME280;44781;53.444;14.476;2022-12-07T00:11:44;101097.50;;;3.65;83.87
58991;BME280;44781;53.444;14.476;2022-12-07T00:14:14;101096.77;;;3.66;83.73
58991;BME280;44781;53.444;14.476;2022-12-07T00:16:43;101092.02;;;3.67;83.77
58991;BME280;44781;53.444;14.476;2022-12-07T00:19:13;101093.52;;;3.69;83.91
58991;BME280;44781;53.444;14.476;2022-12-07T00:21:41;101087.30;;;3.71;84.06
58991;BME280;44781;53.444;14.476;2022-12-07T00:24:10;101084.46;;;3.72;83.91
58991;BME280;44781;53.444;14.476;2022-12-07T00:26:39;101082.80;;;3.70;83.79
58991;BME280;44781;53.444;14.476;2022-12-07T00:29:21;101078.86;;;3.68;83.69
58991;BME280;44781;53.444;14.476;2022-12-07T00:31:48;101082.05;;;3.67;83.76
58991;BME280;44781;53.444;14.476;2022-12-07T00:34:20;101079.27;;;3.67;83.89
58991;BME280;44781;53.444;14.476;2022-12-07T00:36:48;101078.24;;;3.70;83.94
58991;BME280;44781;53.444;14.476;2022-12-07T00:39:16;101070.45;;;3.73;83.95
58991;BME280;44781;53.444;14.476;2022-12-07T00:41:43;101069.07;;;3.77;84.02
58991;BME280;44781;53.444;14.476;2022-12-07T00:44:10;101068.45;;;3.79;84.08
58991;BME280;44781;53.444;14.476;2022-12-07T00:46:37;101064.66;;;3.82;84.04
58991;BME280;44781;53.444;14.476;2022-12-07T00:49:04;101065.15;;;3.82;83.96
58991;BME280;44781;53.444;14.476;2022-12-07T00:51:31;101064.20;;;3.80;83.74
58991;BME280;44781;53.444;14.476;2022-12-07T00:53:58;101063.81;;;3.77;83.71
58991;BME280;44781;53.444;14.476;2022-12-07T00:56:27;101065.02;;;3.77;83.66
58991;BME280;44781;53.444;14.476;2022-12-07T00:59:00;101060.95;;;3.78;83.71
58991;BME280;44781;53.444;14.476;2022-12-07T01:01:30;101059.86;;;3.80;83.68
58991;BME280;44781;53.444;14.476;2022-12-07T01:03:58;101059.09;;;3.81;83.68
58991;BME280;44781;53.444;14.476;2022-12-07T01:06:29;101054.34;;;3.82;83.77
58991;BME280;44781;53.444;14.476;2022-12-07T01:08:57;101050.67;;;3.82;83.59
58991;BME280;44781;53.444;14.476;2022-12-07T01:11:27;101051.11;;;3.80;83.60
58991;BME280;44781;53.444;14.476;2022-12-07T01:13:56;101048.59;;;3.78;83.45
58991;BME280;44781;53.444;14.476;2022-12-07T01:16:26;101048.94;;;3.73;83.39
58991;BME280;44781;53.444;14.476;2022-12-07T01:18:54;101050.84;;;3.70;83.22
58991;BME280;44781;53.444;14.476;2022-12-07T01:21:24;101052.61;;;3.69;83.27
58991;BME280;44781;53.444;14.476;2022-12-07T01:23:52;101053.65;;;3.69;83.21
58991;BME280;44781;53.444;14.476;2022-12-07T01:26:22;101044.34;;;3.71;83.25
58991;BME280;44781;53.444;14.476;2022-12-07T01:28:50;101040.98;;;3.71;83.28
58991;BME280;44781;53.444;14.476;2022-12-07T01:31:20;101040.46;;;3.71;83.14
58991;BME280;44781;53.444;14.476;2022-12-07T01:33:49;101036.38;;;3.69;83.07
58991;BME280;44781;53.444;14.476;2022-12-07T01:36:25;101031.90;;;3.67;82.91
58991;BME280;44781;53.444;14.476;2022-12-07T01:39:02;101029.04;;;3.65;82.79
58991;BME280;44781;53.444;14.476;2022-12-07T01:41:32;101028.79;;;3.62;82.63
58991;BME280;44781;53.444;14.476;2022-12-07T01:44:24;101023.15;;;3.63;82.61
58991;BME280;44781;53.444;14.476;2022-12-07T01:47:03;101028.35;;;3.64;82.62
58991;BME280;44781;53.444;14.476;2022-12-07T01:49:39;101026.55;;;3.65;82.53
58991;BME280;44781;53.444;14.476;2022-12-07T01:52:20;101026.68;;;3.67;82.33
58991;BME280;44781;53.444;14.476;2022-12-07T01:54:52;101025.34;;;3.65;82.37
58991;BME280;44781;53.444;14.476;2022-12-07T01:57:20;101022.28;;;3.63;82.18
58991;BME280;44781;53.444;14.476;2022-12-07T01:59:49;101006.42;;;3.54;82.23
58991;BME280;44781;53.444;14.476;2022-12-07T02:02:41;101012.46;;;3.56;82.07
58991;BME280;44781;53.444;14.476;2022-12-07T02:05:10;101012.25;;;3.52;81.97
58991;BME280;44781;53.444;14.476;2022-12-07T02:07:38;101007.19;;;3.52;82.10
58991;BME280;44781;53.444;14.476;2022-12-07T02:10:17;101001.19;;;3.54;81.96
58991;BME280;44781;53.444;14.476;2022-12-07T02:12:47;101004.98;;;3.55;81.87
58991;BME280;44781;53.444;14.476;2022-12-07T02:15:15;101003.91;;;3.55;81.90
58991;BME280;44781;53.444;14.476;2022-12-07T02:17:53;101002.98;;;3.57;81.91
58991;BME280;44781;53.444;14.476;2022-12-07T02:21:02;101001.23;;;3.57;81.91
58991;BME280;44781;53.444;14.476;2022-12-07T02:29:44;100982.96;;;3.51;81.81
58991;BME280;44781;53.444;14.476;2022-12-07T02:32:19;100976.91;;;3.50;81.75
58991;BME280;44781;53.444;14.476;2022-12-07T02:34:55;100975.17;;;3.50;81.73
58991;BME280;44781;53.444;14.476;2022-12-07T02:42:35;100973.73;;;3.51;81.81
58991;BME280;44781;53.444;14.476;2022-12-07T02:45:05;100971.06;;;3.47;81.80
58991;BME280;44781;53.444;14.476;2022-12-07T02:47:34;100963.98;;;3.45;81.80
58991;BME280;44781;53.444;14.476;2022-12-07T02:50:06;100961.80;;;3.44;81.80
58991;BME280;44781;53.444;14.476;2022-12-07T02:52:33;100955.35;;;3.43;81.78
58991;BME280;44781;53.444;14.476;2022-12-07T02:55:00;100953.83;;;3.42;81.60
58991;BME280;44781;53.444;14.476;2022-12-07T03:00:21;100955.31;;;3.40;81.58
58991;BME280;44781;53.444;14.476;2022-12-07T03:02:59;100952.87;;;3.40;81.54
58991;BME280;44781;53.444;14.476;2022-12-07T03:13:30;100942.95;;;3.35;81.36
58991;BME280;44781;53.444;14.476;2022-12-07T03:19:03;100938.87;;;3.29;81.18
58991;BME280;44781;53.444;14.476;2022-12-07T03:21:37;100938.08;;;3.27;81.09
58991;BME280;44781;53.444;14.476;2022-12-07T03:24:13;100937.27;;;3.26;80.99
58991;BME280;44781;53.444;14.476;2022-12-07T03:26:46;100933.23;;;3.26;81.14
58991;BME280;44781;53.444;14.476;2022-12-07T03:29:27;100926.71;;;3.27;81.16
58991;BME280;44781;53.444;14.476;2022-12-07T03:32:02;100921.88;;;3.29;81.26
58991;BME280;44781;53.444;14.476;2022-12-07T03:34:58;100917.30;;;3.31;81.18
58991;BME280;44781;53.444;14.476;2022-12-07T03:42:33;100906.11;;;3.27;81.01
58991;BME280;44781;53.444;14.476;2022-12-07T03:45:02;100907.16;;;3.27;80.92
58991;BME280;44781;53.444;14.476;2022-12-07T03:47:33;100909.20;;;3.28;80.92
58991;BME280;44781;53.444;14.476;2022-12-07T03:50:14;100904.92;;;3.30;80.98
58991;BME280;44781;53.444;14.476;2022-12-07T03:55:32;100897.86;;;3.36;80.98
58991;BME280;44781;53.444;14.476;2022-12-07T03:58:05;100894.00;;;3.36;80.91
58991;BME280;44781;53.444;14.476;2022-12-07T04:00:33;100894.36;;;3.36;80.70
58991;BME280;44781;53.444;14.476;2022-12-07T04:03:00;100888.14;;;3.35;80.75
58991;BME280;44781;53.444;14.476;2022-12-07T04:05:27;100885.77;;;3.33;80.51
58991;BME280;44781;53.444;14.476;2022-12-07T04:07:54;100882.34;;;3.32;80.39
58991;BME280;44781;53.444;14.476;2022-12-07T04:10:21;100875.41;;;3.30;80.36
58991;BME280;44781;53.444;14.476;2022-12-07T04:12:48;100873.15;;;3.30;80.29
58991;BME280;44781;53.444;14.476;2022-12-07T04:15:15;100872.59;;;3.31;80.23
58991;BME280;44781;53.444;14.476;2022-12-07T04:17:42;100868.55;;;3.31;80.13
58991;BME280;44781;53.444;14.476;2022-12-07T04:20:10;100868.52;;;3.32;80.13
58991;BME280;44781;53.444;14.476;2022-12-07T04:22:38;100866.93;;;3.32;80.07
58991;BME280;44781;53.444;14.476;2022-12-07T04:25:05;100866.28;;;3.31;79.97
58991;BME280;44781;53.444;14.476;2022-12-07T04:27:32;100862.50;;;3.30;79.72
58991;BME280;44781;53.444;14.476;2022-12-07T04:30:02;100856.20;;;3.26;79.58
58991;BME280;44781;53.444;14.476;2022-12-07T04:32:29;100851.11;;;3.23;79.57
58991;BME280;44781;53.444;14.476;2022-12-07T04:34:56;100850.38;;;3.20;79.49
58991;BME280;44781;53.444;14.476;2022-12-07T04:37:23;100845.23;;;3.17;79.56
58991;BME280;44781;53.444;14.476;2022-12-07T04:39:51;100837.40;;;3.17;79.54
58991;BME280;44781;53.444;14.476;2022-12-07T04:42:18;100838.21;;;3.19;79.56
58991;BME280;44781;53.444;14.476;2022-12-07T04:44:45;100835.88;;;3.20;79.63
58991;BME280;44781;53.444;14.476;2022-12-07T04:47:12;100837.56;;;3.21;79.80
58991;BME280;44781;53.444;14.476;2022-12-07T04:49:38;100836.02;;;3.21;79.60
58991;BME280;44781;53.444;14.476;2022-12-07T04:52:05;100831.84;;;3.21;79.65
58991;BME280;44781;53.444;14.476;2022-12-07T04:54:32;100831.09;;;3.18;79.70
58991;BME280;44781;53.444;14.476;2022-12-07T04:56:59;100831.17;;;3.16;79.65
58991;BME280;44781;53.444;14.476;2022-12-07T04:59:27;100828.63;;;3.14;79.76
58991;BME280;44781;53.444;14.476;2022-12-07T05:01:54;100828.50;;;3.13;79.69
58991;BME280;44781;53.444;14.476;2022-12-07T05:04:21;100830.72;;;3.14;79.88
58991;BME280;44781;53.444;14.476;2022-12-07T05:06:48;100827.89;;;3.15;79.98
58991;BME280;44781;53.444;14.476;2022-12-07T05:09:15;100823.00;;;3.15;79.97
58991;BME280;44781;53.444;14.476;2022-12-07T05:11:42;100823.02;;;3.14;79.96
58991;BME280;44781;53.444;14.476;2022-12-07T05:16:41;100816.09;;;3.09;79.91
58991;BME280;44781;53.444;14.476;2022-12-07T05:19:10;100811.55;;;3.05;79.94
58991;BME280;44781;53.444;14.476;2022-12-07T05:21:38;100808.94;;;3.01;79.90
58991;BME280;44781;53.444;14.476;2022-12-07T05:24:07;100805.54;;;2.99;79.95
58991;BME280;44781;53.444;14.476;2022-12-07T05:26:35;100803.98;;;2.99;79.92
58991;BME280;44781;53.444;14.476;2022-12-07T05:29:02;100801.56;;;2.99;80.08
58991;BME280;44781;53.444;14.476;2022-12-07T05:31:30;100799.95;;;2.99;80.05
58991;BME280;44781;53.444;14.476;2022-12-07T05:33:57;100796.61;;;3.00;80.09
58991;BME280;44781;53.444;14.476;2022-12-07T05:36:24;100793.86;;;2.99;80.25
58991;BME280;44781;53.444;14.476;2022-12-07T05:38:51;100793.55;;;2.98;80.25
58991;BME280;44781;53.444;14.476;2022-12-07T05:41:18;100792.64;;;2.95;80.15
58991;BME280;44781;53.444;14.476;2022-12-07T05:44:05;100791.44;;;2.90;80.17
58991;BME280;44781;53.444;14.476;2022-12-07T05:46:33;100787.92;;;2.87;80.14
58991;BME280;44781;53.444;14.476;2022-12-07T05:49:01;100787.30;;;2.85;80.07
58991;BME280;44781;53.444;14.476;2022-12-07T05:51:28;100783.67;;;2.85;80.15
58991;BME280;44781;53.444;14.476;2022-12-07T05:53:56;100777.25;;;2.84;80.33
58991;BME280;44781;53.444;14.476;2022-12-07T05:56:23;100774.69;;;2.83;80.20
58991;BME280;44781;53.444;14.476;2022-12-07T05:58:50;100771.45;;;2.81;80.30
58991;BME280;44781;53.444;14.476;2022-12-07T06:01:35;100767.92;;;2.78;80.47
58991;BME280;44781;53.444;14.476;2022-12-07T06:04:02;100769.05;;;2.75;80.52
58991;BME280;44781;53.444;14.476;2022-12-07T06:06:29;100768.14;;;2.72;80.43
58991;BME280;44781;53.444;14.476;2022-12-07T06:08:56;100761.75;;;2.71;80.45
58991;BME280;44781;53.444;14.476;2022-12-07T06:11:23;100759.65;;;2.71;80.33
58991;BME280;44781;53.444;14.476;2022-12-07T06:14:09;100756.67;;;2.71;80.54
58991;BME280;44781;53.444;14.476;2022-12-07T06:16:36;100754.57;;;2.71;80.77
58991;BME280;44781;53.444;14.476;2022-12-07T06:19:04;100752.83;;;2.72;80.72
58991;BME280;44781;53.444;14.476;2022-12-07T06:21:31;100750.05;;;2.71;80.81
58991;BME280;44781;53.444;14.476;2022-12-07T06:23:58;100743.67;;;2.69;80.87
58991;BME280;44781;53.444;14.476;2022-12-07T06:26:26;100738.33;;;2.68;80.87
58991;BME280;44781;53.444;14.476;2022-12-07T06:28:53;100736.87;;;2.65;80.79
58991;BME280;44781;53.444;14.476;2022-12-07T06:31:20;100734.49;;;2.64;80.84
58991;BME280;44781;53.444;14.476;2022-12-07T06:33:47;100736.22;;;2.64;80.89
58991;BME280;44781;53.444;14.476;2022-12-07T06:36:14;100736.20;;;2.65;80.98
58991;BME280;44781;53.444;14.476;2022-12-07T06:38:41;100737.30;;;2.67;81.17
58991;BME280;44781;53.444;14.476;2022-12-07T06:41:08;100733.39;;;2.69;81.28
58991;BME280;44781;53.444;14.476;2022-12-07T06:43:35;100732.46;;;2.70;81.31
58991;BME280;44781;53.444;14.476;2022-12-07T06:46:05;100727.59;;;2.70;81.27
58991;BME280;44781;53.444;14.476;2022-12-07T06:48:33;100725.38;;;2.69;81.22
58991;BME280;44781;53.444;14.476;2022-12-07T06:51:00;100728.41;;;2.67;81.21
58991;BME280;44781;53.444;14.476;2022-12-07T06:53:27;100728.46;;;2.66;81.18
58991;BME280;44781;53.444;14.476;2022-12-07T06:55:54;100732.48;;;2.66;81.13
58991;BME280;44781;53.444;14.476;2022-12-07T06:58:21;100732.13;;;2.66;81.21
58991;BME280;44781;53.444;14.476;2022-12-07T07:00:49;100734.15;;;2.68;81.27
58991;BME280;44781;53.444;14.476;2022-12-07T07:03:18;100731.67;;;2.69;81.36
58991;BME280;44781;53.444;14.476;2022-12-07T07:05:44;100727.95;;;2.70;81.40
58991;BME280;44781;53.444;14.476;2022-12-07T07:08:12;100723.77;;;2.70;81.40
58991;BME280;44781;53.444;14.476;2022-12-07T07:10:40;100720.89;;;2.68;81.35
58991;BME280;44781;53.444;14.476;2022-12-07T07:13:08;100723.75;;;2.66;81.43
58991;BME280;44781;53.444;14.476;2022-12-07T07:15:40;100728.83;;;2.66;81.38
58991;BME280;44781;53.444;14.476;2022-12-07T07:18:08;100731.22;;;2.67;81.37
58991;BME280;44781;53.444;14.476;2022-12-07T07:20:36;100724.38;;;2.68;81.41
58991;BME280;44781;53.444;14.476;2022-12-07T07:23:07;100724.69;;;2.69;81.51
58991;BME280;44781;53.444;14.476;2022-12-07T07:25:37;100719.91;;;2.70;81.59
58991;BME280;44781;53.444;14.476;2022-12-07T07:28:04;100716.88;;;2.72;81.60
58991;BME280;44781;53.444;14.476;2022-12-07T07:30:32;100714.59;;;2.72;81.60
58991;BME280;44781;53.444;14.476;2022-12-07T07:33:00;100705.88;;;2.72;81.55
58991;BME280;44781;53.444;14.476;2022-12-07T07:35:29;100701.20;;;2.71;81.63
58991;BME280;44781;53.444;14.476;2022-12-07T07:37:59;100701.17;;;2.72;81.74
58991;BME280;44781;53.444;14.476;2022-12-07T07:40:27;100705.98;;;2.74;81.70
58991;BME280;44781;53.444;14.476;2022-12-07T07:42:58;100710.58;;;2.76;81.75
58991;BME280;44781;53.444;14.476;2022-12-07T07:45:26;100712.91;;;2.79;81.86
58991;BME280;44781;53.444;14.476;2022-12-07T07:47:54;100713.17;;;2.81;81.89
58991;BME280;44781;53.444;14.476;2022-12-07T07:50:21;100712.45;;;2.81;81.76
58991;BME280;44781;53.444;14.476;2022-12-07T07:52:48;100711.84;;;2.79;81.71
58991;BME280;44781;53.444;14.476;2022-12-07T07:55:18;100713.00;;;2.77;81.65
58991;BME280;44781;53.444;14.476;2022-12-07T07:57:47;100712.95;;;2.74;81.67
58991;BME280;44781;53.444;14.476;2022-12-07T08:00:15;100712.38;;;2.71;81.59
58991;BME280;44781;53.444;14.476;2022-12-07T08:02:43;100714.67;;;2.70;81.62
58991;BME280;44781;53.444;14.476;2022-12-07T08:05:13;100716.77;;;2.70;81.84
58991;BME280;44781;53.444;14.476;2022-12-07T08:07:40;100713.77;;;2.71;81.92
58991;BME280;44781;53.444;14.476;2022-12-07T08:10:10;100709.92;;;2.71;82.02
58991;BME280;44781;53.444;14.476;2022-12-07T08:12:39;100712.25;;;2.70;81.99
58991;BME280;44781;53.444;14.476;2022-12-07T08:15:28;100714.19;;;2.69;82.19
58991;BME280;44781;53.444;14.476;2022-12-07T08:17:59;100713.77;;;2.67;82.15
58991;BME280;44781;53.444;14.476;2022-12-07T08:20:26;100717.75;;;2.64;82.04
58991;BME280;44781;53.444;14.476;2022-12-07T08:22:53;100718.19;;;2.62;82.16
58991;BME280;44781;53.444;14.476;2022-12-07T08:25:20;100720.51;;;2.61;82.11
58991;BME280;44781;53.444;14.476;2022-12-07T08:27:50;100721.14;;;2.58;82.18
58991;BME280;44781;53.444;14.476;2022-12-07T08:30:18;100719.83;;;2.56;82.34
58991;BME280;44781;53.444;14.476;2022-12-07T08:32:46;100714.24;;;2.56;82.56
58991;BME280;44781;53.444;14.476;2022-12-07T08:35:14;100715.23;;;2.57;82.74
58991;BME280;44781;53.444;14.476;2022-12-07T08:37:42;100720.98;;;2.58;82.77
58991;BME280;44781;53.444;14.476;2022-12-07T08:40:10;100714.50;;;2.54;82.78
58991;BME280;44781;53.444;14.476;2022-12-07T08:42:39;100711.63;;;2.52;82.84
58991;BME280;44781;53.444;14.476;2022-12-07T08:45:08;100710.82;;;2.50;82.79
58991;BME280;44781;53.444;14.476;2022-12-07T08:47:38;100711.92;;;2.49;82.80
58991;BME280;44781;53.444;14.476;2022-12-07T08:50:07;100714.84;;;2.50;82.97
58991;BME280;44781;53.444;14.476;2022-12-07T08:52:36;100709.23;;;2.51;83.16
58991;BME280;44781;53.444;14.476;2022-12-07T08:55:04;100709.02;;;2.52;83.32
58991;BME280;44781;53.444;14.476;2022-12-07T08:57:34;100706.84;;;2.54;83.43
58991;BME280;44781;53.444;14.476;2022-12-07T09:00:04;100703.38;;;2.53;83.46
58991;BME280;44781;53.444;14.476;2022-12-07T09:02:35;100702.73;;;2.52;83.32
58991;BME280;44781;53.444;14.476;2022-12-07T09:05:02;100701.05;;;2.51;83.60
58991;BME280;44781;53.444;14.476;2022-12-07T09:07:31;100700.68;;;2.51;83.45
58991;BME280;44781;53.444;14.476;2022-12-07T09:09:59;100699.90;;;2.53;83.53
58991;BME280;44781;53.444;14.476;2022-12-07T09:12:27;100698.94;;;2.55;83.73
58991;BME280;44781;53.444;14.476;2022-12-07T09:14:53;100700.02;;;2.59;83.69
58991;BME280;44781;53.444;14.476;2022-12-07T09:17:21;100696.42;;;2.61;83.71
58991;BME280;44781;53.444;14.476;2022-12-07T09:19:48;100691.11;;;2.63;83.87
58991;BME280;44781;53.444;14.476;2022-12-07T09:22:15;100692.61;;;2.64;83.87
58991;BME280;44781;53.444;14.476;2022-12-07T09:24:42;100693.69;;;2.64;83.85
58991;BME280;44781;53.444;14.476;2022-12-07T09:27:10;100698.06;;;2.63;83.86
58991;BME280;44781;53.444;14.476;2022-12-07T09:29:36;100696.17;;;2.63;83.59
58991;BME280;44781;53.444;14.476;2022-12-07T09:32:03;100698.10;;;2.63;83.36
58991;BME280;44781;53.444;14.476;2022-12-07T09:34:31;100695.31;;;2.62;83.28
58991;BME280;44781;53.444;14.476;2022-12-07T09:37:00;100695.60;;;2.64;83.39
58991;BME280;44781;53.444;14.476;2022-12-07T09:39:29;100689.25;;;2.65;83.66
58991;BME280;44781;53.444;14.476;2022-12-07T09:41:57;100688.36;;;2.66;83.50
58991;BME280;44781;53.444;14.476;2022-12-07T09:44:26;100689.60;;;2.65;83.45
58991;BME280;44781;53.444;14.476;2022-12-07T09:46:55;100690.15;;;2.65;83.49
58991;BME280;44781;53.444;14.476;2022-12-07T09:49:24;100693.66;;;2.64;83.39
58991;BME280;44781;53.444;14.476;2022-12-07T09:52:27;100700.67;;;2.63;83.38
58991;BME280;44781;53.444;14.476;2022-12-07T09:54:55;100695.81;;;2.63;83.25
58991;BME280;44781;53.444;14.476;2022-12-07T09:57:28;100695.89;;;2.65;83.40
58991;BME280;44781;53.444;14.476;2022-12-07T10:00:00;100693.03;;;2.66;83.54
58991;BME280;44781;53.444;14.476;2022-12-07T10:02:40;100699.67;;;2.70;83.71
58991;BME280;44781;53.444;14.476;2022-12-07T10:05:19;100703.86;;;2.74;83.74
58991;BME280;44781;53.444;14.476;2022-12-07T10:07:47;100696.81;;;2.75;83.73
58991;BME280;44781;53.444;14.476;2022-12-07T10:10:25;100692.81;;;2.75;83.63
58991;BME280;44781;53.444;14.476;2022-12-07T10:15:20;100699.42;;;2.76;83.23
58991;BME280;44781;53.444;14.476;2022-12-07T10:17:49;100701.98;;;2.77;83.12
58991;BME280;44781;53.444;14.476;2022-12-07T10:20:19;100706.87;;;2.77;82.85
58991;BME280;44781;53.444;14.476;2022-12-07T10:23:05;100707.02;;;2.78;82.96
58991;BME280;44781;53.444;14.476;2022-12-07T10:25:35;100704.20;;;2.79;83.01
58991;BME280;44781;53.444;14.476;2022-12-07T10:28:09;100699.46;;;2.79;82.98
58991;BME280;44781;53.444;14.476;2022-12-07T10:30:52;100702.09;;;2.79;82.94
58991;BME280;44781;53.444;14.476;2022-12-07T10:33:36;100701.81;;;2.77;83.00
58991;BME280;44781;53.444;14.476;2022-12-07T10:36:36;100707.82;;;2.75;82.95
58991;BME280;44781;53.444;14.476;2022-12-07T10:39:14;100705.69;;;2.72;82.95
58991;BME280;44781;53.444;14.476;2022-12-07T10:42:02;100704.80;;;2.72;82.99
58991;BME280;44781;53.444;14.476;2022-12-07T10:44:32;100704.89;;;2.74;82.87
58991;BME280;44781;53.444;14.476;2022-12-07T10:52:49;100697.86;;;2.84;83.15
58991;BME280;44781;53.444;14.476;2022-12-07T10:55:26;100694.25;;;2.86;83.19
58991;BME280;44781;53.444;14.476;2022-12-07T10:58:23;100697.55;;;2.87;83.27
58991;BME280;44781;53.444;14.476;2022-12-07T11:04:30;100694.78;;;2.86;83.36
58991;BME280;44781;53.444;14.476;2022-12-07T11:07:06;100692.52;;;2.89;83.35
58991;BME280;44781;53.444;14.476;2022-12-07T11:12:21;100689.36;;;2.98;83.52
58991;BME280;44781;53.444;14.476;2022-12-07T11:15:16;100687.05;;;3.03;83.69
58991;BME280;44781;53.444;14.476;2022-12-07T11:35:05;100681.55;;;3.27;83.32
58991;BME280;44781;53.444;14.476;2022-12-07T11:37:36;100678.64;;;3.29;83.33
58991;BME280;44781;53.444;14.476;2022-12-07T11:42:55;100665.83;;;3.35;83.23
58991;BME280;44781;53.444;14.476;2022-12-07T11:45:29;100666.13;;;3.36;83.11
58991;BME280;44781;53.444;14.476;2022-12-07T11:48:01;100661.90;;;3.37;83.06
58991;BME280;44781;53.444;14.476;2022-12-07T11:50:51;100659.08;;;3.37;83.03
58991;BME280;44781;53.444;14.476;2022-12-07T11:53:25;100660.37;;;3.40;82.92
58991;BME280;44781;53.444;14.476;2022-12-07T11:56:00;100661.13;;;3.42;82.76
58991;BME280;44781;53.444;14.476;2022-12-07T12:03:45;100661.64;;;3.46;82.11
58991;BME280;44781;53.444;14.476;2022-12-07T12:06:13;100662.59;;;3.44;81.68
58991;BME280;44781;53.444;14.476;2022-12-07T12:08:54;100659.20;;;3.42;81.59
58991;BME280;44781;53.444;14.476;2022-12-07T12:20:26;100662.83;;;3.32;81.04
58991;BME280;44781;53.444;14.476;2022-12-07T12:25:42;100657.45;;;3.31;80.37
58991;BME280;44781;53.444;14.476;2022-12-07T12:31:15;100651.62;;;3.36;80.08
58991;BME280;44781;53.444;14.476;2022-12-07T12:33:52;100643.72;;;3.37;79.77
58991;BME280;44781;53.444;14.476;2022-12-07T12:47:01;100638.41;;;3.35;79.38
58991;BME280;44781;53.444;14.476;2022-12-07T12:51:58;100643.16;;;3.52;79.45
58991;BME280;44781;53.444;14.476;2022-12-07T12:54:35;100635.05;;;3.58;79.21
58991;BME280;44781;53.444;14.476;2022-12-07T13:23:25;100630.67;;;3.58;76.52
58991;BME280;44781;53.444;14.476;2022-12-07T13:28:33;100646.25;;;3.50;75.11
58991;BME280;44781;53.444;14.476;2022-12-07T13:31:27;100638.00;;;3.43;74.40
58991;BME280;44781;53.444;14.476;2022-12-07T13:33:57;100636.60;;;3.40;74.13
58991;BME280;44781;53.444;14.476;2022-12-07T13:36:27;100635.33;;;3.38;73.93
58991;BME280;44781;53.444;14.476;2022-12-07T13:39:00;100622.06;;;3.26;73.40
58991;BME280;44781;53.444;14.476;2022-12-07T13:41:41;100635.77;;;3.28;73.16
58991;BME280;44781;53.444;14.476;2022-12-07T13:44:14;100639.13;;;3.20;72.84
58991;BME280;44781;53.444;14.476;2022-12-07T13:49:21;100636.60;;;3.03;72.55
58991;BME280;44781;53.444;14.476;2022-12-07T13:51:50;100638.86;;;2.96;72.36
58991;BME280;44781;53.444;14.476;2022-12-07T13:54:17;100644.33;;;2.87;72.22
58991;BME280;44781;53.444;14.476;2022-12-07T13:56:49;100647.93;;;2.80;72.35
58991;BME280;44781;53.444;14.476;2022-12-07T13:59:23;100643.50;;;2.70;72.44
58991;BME280;44781;53.444;14.476;2022-12-07T14:01:54;100654.70;;;2.70;72.39
58991;BME280;44781;53.444;14.476;2022-12-07T14:04:40;100649.90;;;2.64;72.24
58991;BME280;44781;53.444;14.476;2022-12-07T14:07:47;100648.95;;;2.58;72.27
58991;BME280;44781;53.444;14.476;2022-12-07T14:10:36;100651.20;;;2.54;72.31
58991;BME280;44781;53.444;14.476;2022-12-07T14:13:34;100655.08;;;2.53;72.62
58991;BME280;44781;53.444;14.476;2022-12-07T14:16:04;100660.98;;;2.54;72.98
58991;BME280;44781;53.444;14.476;2022-12-07T14:21:24;100659.36;;;2.55;73.44
58991;BME280;44781;53.444;14.476;2022-12-07T14:24:14;100660.77;;;2.54;73.63
58991;BME280;44781;53.444;14.476;2022-12-07T14:26:43;100668.77;;;2.51;73.86
58991;BME280;44781;53.444;14.476;2022-12-07T14:29:32;100671.16;;;2.48;74.01
58991;BME280;44781;53.444;14.476;2022-12-07T14:32:25;100669.81;;;2.43;74.17
58991;BME280;44781;53.444;14.476;2022-12-07T14:35:16;100666.84;;;2.40;74.38
58991;BME280;44781;53.444;14.476;2022-12-07T14:37:47;100665.98;;;2.39;74.45
58991;BME280;44781;53.444;14.476;2022-12-07T14:40:24;100661.42;;;2.40;74.67
58991;BME280;44781;53.444;14.476;2022-12-07T14:43:00;100664.14;;;2.42;74.71
58991;BME280;44781;53.444;14.476;2022-12-07T14:45:29;100667.21;;;2.39;74.74
58991;BME280;44781;53.444;14.476;2022-12-07T14:47:56;100666.77;;;2.37;74.80
58991;BME280;44781;53.444;14.476;2022-12-07T14:50:23;100664.08;;;2.34;74.82
58991;BME280;44781;53.444;14.476;2022-12-07T14:52:56;100659.44;;;2.33;74.90
58991;BME280;44781;53.444;14.476;2022-12-07T14:55:30;100659.88;;;2.31;74.92
58991;BME280;44781;53.444;14.476;2022-12-07T14:57:58;100660.98;;;2.29;74.98
58991;BME280;44781;53.444;14.476;2022-12-07T15:00:27;100656.56;;;2.27;75.13
58991;BME280;44781;53.444;14.476;2022-12-07T15:02:55;100654.10;;;2.24;75.04
58991;BME280;44781;53.444;14.476;2022-12-07T15:05:23;100654.91;;;2.21;75.26
58991;BME280;44781;53.444;14.476;2022-12-07T15:07:51;100653.21;;;2.20;75.26
58991;BME280;44781;53.444;14.476;2022-12-07T15:10:32;100649.36;;;2.20;75.43
58991;BME280;44781;53.444;14.476;2022-12-07T15:13:01;100651.35;;;2.22;75.56
58991;BME280;44781;53.444;14.476;2022-12-07T15:15:48;100644.99;;;2.25;75.60
58991;BME280;44781;53.444;14.476;2022-12-07T15:18:24;100642.59;;;2.28;75.78
58991;BME280;44781;53.444;14.476;2022-12-07T15:20:51;100643.70;;;2.30;75.82
58991;BME280;44781;53.444;14.476;2022-12-07T15:23:18;100641.08;;;2.30;75.88
58991;BME280;44781;53.444;14.476;2022-12-07T15:25:47;100644.77;;;2.30;75.84
58991;BME280;44781;53.444;14.476;2022-12-07T15:28:15;100644.12;;;2.29;75.90
58991;BME280;44781;53.444;14.476;2022-12-07T15:30:43;100645.91;;;2.27;75.93